createdAt,value
2019-03-26T00:00:57.820Z,101619.73
2019-03-26T00:03:26.255Z,101621.09
2019-03-26T00:05:54.658Z,101626.94
2019-03-26T00:08:23.102Z,101622.45
2019-03-26T00:10:51.590Z,101626.55
2019-03-26T00:13:20.006Z,101628.43
2019-03-26T00:15:48.452Z,101621.61
2019-03-26T00:18:16.870Z,101626.19
2019-03-26T00:20:45.311Z,101616.91
2019-03-26T00:23:13.726Z,101625.44
2019-03-26T00:25:42.171Z,101628.17
2019-03-26T00:28:10.587Z,101624.60
2019-03-26T00:30:39.018Z,101627.07
2019-03-26T00:33:07.441Z,101622.49
2019-03-26T00:35:35.881Z,101627.07
2019-03-26T00:38:04.326Z,101625.35
2019-03-26T00:40:32.746Z,101630.80
2019-03-26T00:43:01.253Z,101636.61
2019-03-26T00:45:29.668Z,101643.95
2019-03-26T00:47:58.081Z,101641.71
2019-03-26T00:50:26.508Z,101643.07
2019-03-26T00:52:54.918Z,101645.80
2019-03-26T00:55:23.438Z,101626.84
2019-03-26T00:57:51.877Z,101641.36
2019-03-26T01:00:37.275Z,101633.17
2019-03-26T01:03:06.755Z,101634.15
2019-03-26T01:05:35.161Z,101639.47
2019-03-26T01:08:03.667Z,101638.98
2019-03-26T01:10:32.072Z,101643.56
2019-03-26T01:13:00.524Z,101642.84
2019-03-26T01:15:28.963Z,101646.42
2019-03-26T01:17:57.417Z,101650.50
2019-03-26T01:20:25.834Z,101652.88
2019-03-26T01:22:54.246Z,101659.69
2019-03-26T01:25:22.669Z,101660.70
2019-03-26T01:27:51.072Z,101669.59
2019-03-26T01:30:19.506Z,101678.29
2019-03-26T01:32:47.908Z,101680.14
2019-03-26T01:35:16.333Z,101681.86
2019-03-26T01:37:44.752Z,101688.67
2019-03-26T01:40:13.192Z,101690.56
2019-03-26T01:42:41.628Z,101689.20
2019-03-26T01:45:10.792Z,101686.95
2019-03-26T01:47:39.216Z,101694.64
2019-03-26T01:50:07.829Z,101689.69
2019-03-26T01:52:36.228Z,101693.77
2019-03-26T01:55:06.715Z,101697.86
2019-03-26T01:57:35.145Z,101694.64
2019-03-26T02:00:05.101Z,101704.19
2019-03-26T02:02:33.536Z,101699.35
2019-03-26T02:05:01.981Z,101704.45
2019-03-26T02:07:30.392Z,101702.08
2019-03-26T02:09:58.793Z,101707.89
2019-03-26T02:12:27.222Z,101704.31
2019-03-26T02:14:55.636Z,101714.70
2019-03-26T02:17:24.084Z,101715.22
2019-03-26T02:19:52.524Z,101711.98
2019-03-26T02:22:20.956Z,101714.22
2019-03-26T02:24:49.362Z,101717.82
2019-03-26T02:27:17.791Z,101711.84
2019-03-26T02:29:46.202Z,101719.19
2019-03-26T02:32:14.629Z,101716.46
2019-03-26T02:34:43.137Z,101712.86
2019-03-26T02:37:11.567Z,101713.86
2019-03-26T02:39:39.964Z,101720.16
2019-03-26T02:42:08.393Z,101717.43
2019-03-26T02:44:36.835Z,101726.61
2019-03-26T02:47:05.235Z,101732.95
2019-03-26T02:49:33.683Z,101733.78
2019-03-26T02:52:02.106Z,101734.44
2019-03-26T02:54:30.522Z,101731.06
2019-03-26T02:56:58.949Z,101734.80
2019-03-26T02:59:27.370Z,101739.77
2019-03-26T03:01:55.816Z,101738.88
2019-03-26T03:04:24.285Z,101741.48
2019-03-26T03:06:52.695Z,101740.60
2019-03-26T03:09:21.141Z,101745.21
2019-03-26T03:11:49.545Z,101740.73
2019-03-26T03:14:17.988Z,101738.01
2019-03-26T03:16:46.396Z,101742.09
2019-03-26T03:19:16.046Z,101745.83
2019-03-26T03:21:44.829Z,101751.64
2019-03-26T03:24:13.253Z,101746.70
2019-03-26T03:26:41.663Z,101754.36
2019-03-26T03:29:10.083Z,101752.16
2019-03-26T03:31:38.517Z,101750.80
2019-03-26T03:34:06.956Z,101748.55
2019-03-26T03:36:35.426Z,101741.73
2019-03-26T03:39:05.428Z,101743.09
2019-03-26T03:41:33.873Z,101750.80
2019-03-26T03:44:02.272Z,101756.73
2019-03-26T03:46:31.139Z,101756.73
2019-03-26T03:49:00.858Z,101760.82
2019-03-26T03:51:31.545Z,101762.67
2019-03-26T03:54:00.493Z,101758.09
2019-03-26T03:56:31.345Z,101767.64
2019-03-26T03:59:02.330Z,101762.19
2019-03-26T04:01:30.760Z,101762.67
2019-03-26T04:03:59.202Z,101762.19
2019-03-26T04:06:27.696Z,101759.94
2019-03-26T04:08:56.136Z,101759.19
2019-03-26T04:11:24.531Z,101766.01
2019-03-26T04:13:52.945Z,101764.77
2019-03-26T04:16:21.393Z,101762.05
2019-03-26T04:18:49.834Z,101765.65
2019-03-26T04:21:18.240Z,101773.34
2019-03-26T04:23:46.681Z,101777.56
2019-03-26T04:26:15.087Z,101784.50
2019-03-26T04:28:43.768Z,101793.52
2019-03-26T04:31:12.228Z,101790.92
2019-03-26T04:33:40.638Z,101792.28
2019-03-26T04:36:24.234Z,101789.20
2019-03-26T04:38:39.195Z,101793.78
2019-03-26T04:41:07.597Z,101798.52
2019-03-26T04:43:36.030Z,101798.12
2019-03-26T04:46:04.443Z,101801.36
2019-03-26T04:48:32.867Z,101800.61
2019-03-26T04:51:01.279Z,101799.61
2019-03-26T04:53:29.710Z,101800.25
2019-03-26T04:55:58.145Z,101805.83
2019-03-26T04:58:26.577Z,101805.95
2019-03-26T05:00:54.977Z,101803.72
2019-03-26T05:03:23.382Z,101806.92
2019-03-26T05:05:51.821Z,101808.89
2019-03-26T05:08:20.217Z,101807.92
2019-03-26T05:10:49.347Z,101816.10
2019-03-26T05:13:17.848Z,101814.99
2019-03-26T05:15:46.330Z,101826.73
2019-03-26T05:18:14.751Z,101818.69
2019-03-26T05:20:43.175Z,101812.39
2019-03-26T05:23:11.574Z,101817.32
2019-03-26T05:25:40.007Z,101820.56
2019-03-26T05:28:08.416Z,101821.41
2019-03-26T05:30:36.818Z,101820.56
2019-03-26T05:33:05.244Z,101828.34
2019-03-26T05:35:33.731Z,101831.47
2019-03-26T05:38:02.158Z,101843.34
2019-03-26T05:40:30.562Z,101846.58
2019-03-26T05:42:58.969Z,101842.98
2019-03-26T05:45:27.394Z,101839.89
2019-03-26T05:47:55.840Z,101842.09
2019-03-26T05:50:24.268Z,101850.67
2019-03-26T05:52:52.702Z,101845.22
2019-03-26T05:55:21.201Z,101855.11
2019-03-26T05:57:49.616Z,101863.77
2019-03-26T06:00:20.236Z,101856.48
2019-03-26T06:02:48.713Z,101856.48
2019-03-26T06:05:17.136Z,101850.02
2019-03-26T06:07:45.568Z,101852.27
2019-03-26T06:10:14.422Z,101849.91
2019-03-26T06:12:42.868Z,101855.62
2019-03-26T06:15:11.530Z,101857.73
2019-03-26T06:17:40.084Z,101860.83
2019-03-26T06:20:10.144Z,101865.27
2019-03-26T06:22:38.648Z,101863.78
2019-03-26T06:25:08.121Z,101867.39
2019-03-26T06:27:36.530Z,101874.44
2019-03-26T06:30:07.574Z,101872.47
2019-03-26T06:32:35.980Z,101878.16
2019-03-26T06:35:08.349Z,101884.36
2019-03-26T06:37:36.915Z,101877.42
2019-03-26T06:40:07.852Z,101885.88
2019-03-26T06:42:36.291Z,101878.41
2019-03-26T06:45:07.769Z,101878.16
2019-03-26T06:47:36.207Z,101881.28
2019-03-26T06:50:07.287Z,101885.96
2019-03-26T06:52:35.711Z,101898.63
2019-03-26T06:55:06.066Z,101897.14
2019-03-26T06:57:35.858Z,101899.22
2019-03-26T07:00:07.879Z,101897.25
2019-03-26T07:02:36.490Z,101889.33
2019-03-26T07:05:06.220Z,101894.89
2019-03-26T07:07:34.651Z,101900.20
2019-03-26T07:10:04.455Z,101899.48
2019-03-26T07:12:32.866Z,101894.89
2019-03-26T07:15:01.297Z,101896.98
2019-03-26T07:17:30.590Z,101902.29
2019-03-26T07:19:59.022Z,101897.64
2019-03-26T07:22:27.479Z,101905.80
2019-03-26T07:24:55.932Z,101903.88
2019-03-26T07:27:24.352Z,101907.95
2019-03-26T07:29:52.941Z,101905.05
2019-03-26T07:32:21.347Z,101898.52
2019-03-26T07:34:49.808Z,101892.36
2019-03-26T07:37:18.222Z,101896.75
2019-03-26T07:39:46.674Z,101896.95
2019-03-26T07:42:15.092Z,101904.25
2019-03-26T07:44:45.428Z,101908.08
2019-03-26T07:47:13.656Z,101909.44
2019-03-26T07:49:42.060Z,101907.45
2019-03-26T07:52:10.484Z,101915.27
2019-03-26T07:54:38.945Z,101911.55
2019-03-26T07:57:07.344Z,101914.99
2019-03-26T07:59:35.750Z,101917.59
2019-03-26T08:02:04.248Z,101919.48
2019-03-26T08:04:32.689Z,101923.72
2019-03-26T08:07:01.100Z,101928.80
2019-03-26T08:09:31.710Z,101923.86
2019-03-26T08:11:59.869Z,101929.95
2019-03-26T08:14:28.338Z,101936.57
2019-03-26T08:16:56.777Z,101945.14
2019-03-26T08:19:25.170Z,101950.53
2019-03-26T08:21:53.616Z,101954.54
2019-03-26T08:24:22.033Z,101956.66
2019-03-26T08:26:52.023Z,101952.83
2019-03-26T08:29:20.768Z,101946.02
2019-03-26T08:31:49.186Z,101946.28
2019-03-26T08:34:17.628Z,101955.75
2019-03-26T08:36:46.034Z,101954.30
2019-03-26T08:39:14.463Z,101951.93
2019-03-26T08:41:42.882Z,101955.45
2019-03-26T08:44:11.341Z,101957.92
2019-03-26T08:46:39.746Z,101956.69
2019-03-26T08:49:08.178Z,101963.66
2019-03-26T08:51:36.623Z,101959.20
2019-03-26T08:54:05.180Z,101958.31
2019-03-26T08:56:33.585Z,101960.83
2019-03-26T08:59:02.028Z,101966.65
2019-03-26T09:01:30.464Z,101966.78
2019-03-26T09:03:58.876Z,101955.50
2019-03-26T09:06:27.310Z,101944.66
2019-03-26T09:08:55.713Z,101948.71
2019-03-26T09:11:24.135Z,101947.98
2019-03-26T09:13:52.562Z,101948.02
2019-03-26T09:16:20.980Z,101956.20
2019-03-26T09:18:49.423Z,101960.66
2019-03-26T09:21:17.830Z,101960.18
2019-03-26T09:23:46.261Z,101957.50
2019-03-26T09:26:14.666Z,101962.63
2019-03-26T09:28:43.094Z,101970.48
2019-03-26T09:31:11.517Z,101969.64
2019-03-26T09:33:39.955Z,101971.41
2019-03-26T09:36:08.370Z,101970.57
2019-03-26T09:38:39.205Z,101971.45
2019-03-26T09:41:07.035Z,101971.49
2019-03-26T09:43:35.482Z,101968.67
2019-03-26T09:46:03.915Z,101970.26
2019-03-26T09:48:32.338Z,101972.77
2019-03-26T09:51:00.776Z,101974.88
2019-03-26T09:53:29.205Z,101975.50
2019-03-26T09:55:57.598Z,101971.53
2019-03-26T09:58:26.055Z,101980.44
2019-03-26T10:00:54.499Z,101974.62
2019-03-26T10:03:22.906Z,101977.84
2019-03-26T10:05:51.318Z,101975.10
2019-03-26T10:08:19.765Z,101979.91
2019-03-26T10:10:48.189Z,101966.82
2019-03-26T10:13:16.629Z,101967.52
2019-03-26T10:15:45.044Z,101971.08
2019-03-26T10:18:13.486Z,101972.48
2019-03-26T10:20:41.901Z,101979.17
2019-03-26T10:23:10.346Z,101980.13
2019-03-26T10:25:38.758Z,101977.89
2019-03-26T10:28:07.256Z,101982.78
2019-03-26T10:30:39.648Z,101981.30
2019-03-26T10:33:09.411Z,101985.31
2019-03-26T10:35:38.042Z,101979.72
2019-03-26T10:38:06.665Z,101988.71
2019-03-26T10:40:37.616Z,101991.33
2019-03-26T10:43:06.699Z,101986.61
2019-03-26T10:45:35.100Z,101987.75
2019-03-26T10:48:03.656Z,101982.55
2019-03-26T10:50:32.138Z,101985.91
2019-03-26T10:53:00.564Z,101980.96
2019-03-26T10:55:29.008Z,101974.98
2019-03-26T10:57:57.512Z,101973.25
2019-03-26T11:00:26.105Z,101972.24
2019-03-26T11:02:54.806Z,101974.48
2019-03-26T11:05:23.431Z,101972.11
2019-03-26T11:07:51.847Z,101969.63
2019-03-26T11:10:20.288Z,101960.55
2019-03-26T11:12:48.784Z,101958.56
2019-03-26T11:15:17.343Z,101951.95
2019-03-26T11:17:45.791Z,101947.97
2019-03-26T11:20:14.760Z,101945.55
2019-03-26T11:22:43.259Z,101936.67
2019-03-26T11:25:12.415Z,101940.97
2019-03-26T11:27:41.071Z,101933.86
2019-03-26T11:32:37.856Z,101936.73
2019-03-26T11:35:07.754Z,101932.41
2019-03-26T11:37:36.829Z,101925.22
2019-03-26T11:40:07.718Z,101931.05
2019-03-26T11:42:36.165Z,101927.69
2019-03-26T11:45:07.740Z,101928.55
2019-03-26T11:47:36.367Z,101934.34
2019-03-26T11:50:05.615Z,101930.67
2019-03-26T11:52:34.323Z,101932.16
2019-03-26T11:55:03.017Z,101933.24
2019-03-26T11:57:31.472Z,101934.20
2019-03-26T11:59:59.902Z,101924.20
2019-03-26T12:02:28.400Z,101928.17
2019-03-26T12:04:57.009Z,101931.92
2019-03-26T12:07:25.481Z,101933.50
2019-03-26T12:09:53.965Z,101935.89
2019-03-26T12:12:22.390Z,101936.88
2019-03-26T12:14:50.820Z,101937.81
2019-03-26T12:17:19.233Z,101932.97
2019-03-26T12:19:47.699Z,101928.41
2019-03-26T12:22:16.118Z,101929.55
2019-03-26T12:24:44.553Z,101923.62
2019-03-26T12:27:12.985Z,101933.47
2019-03-26T12:29:41.454Z,101931.00
2019-03-26T12:32:09.835Z,101929.39
2019-03-26T12:34:38.347Z,101931.87
2019-03-26T12:37:06.767Z,101934.25
2019-03-26T12:39:35.223Z,101925.80
2019-03-26T12:42:03.741Z,101927.30
2019-03-26T12:44:32.141Z,101918.11
2019-03-26T12:47:00.573Z,101918.83
2019-03-26T12:49:29.021Z,101918.28
2019-03-26T12:51:57.517Z,101918.89
2019-03-26T12:54:25.937Z,101912.86
2019-03-26T12:56:54.394Z,101911.57
2019-03-26T12:59:22.800Z,101911.92
2019-03-26T13:01:51.246Z,101908.70
2019-03-26T13:04:19.670Z,101903.37
2019-03-26T13:06:49.702Z,101902.14
2019-03-26T13:09:18.135Z,101902.62
2019-03-26T13:11:46.581Z,101905.28
2019-03-26T13:14:14.988Z,101907.28
2019-03-26T13:16:43.435Z,101907.67
2019-03-26T13:19:11.849Z,101895.63
2019-03-26T13:21:40.284Z,101898.13
2019-03-26T13:24:11.282Z,101899.88
2019-03-26T13:26:38.876Z,101894.27
2019-03-26T13:29:07.311Z,101899.27
2019-03-26T13:31:35.783Z,101904.17
2019-03-26T13:34:04.274Z,101905.13
2019-03-26T13:36:32.709Z,101897.02
2019-03-26T13:39:01.135Z,101893.34
2019-03-26T13:41:29.593Z,101896.22
2019-03-26T13:43:58.021Z,101898.95
2019-03-26T13:46:26.461Z,101901.98
2019-03-26T13:48:54.884Z,101907.45
2019-03-26T13:51:23.327Z,101892.67
2019-03-26T13:53:51.752Z,101894.05
2019-03-26T13:56:20.192Z,101891.69
2019-03-26T13:58:48.653Z,101888.30
2019-03-26T14:01:17.075Z,101885.55
2019-03-26T14:03:45.508Z,101882.82
2019-03-26T14:06:13.956Z,101874.61
2019-03-26T14:08:42.412Z,101874.75
2019-03-26T14:11:10.835Z,101867.34
2019-03-26T14:13:39.266Z,101868.72
2019-03-26T14:16:07.678Z,101862.23
2019-03-26T14:18:36.118Z,101865.31
2019-03-26T14:21:04.618Z,101857.84
2019-03-26T14:23:33.067Z,101851.59
2019-03-26T14:26:01.491Z,101846.61
2019-03-26T14:28:29.935Z,101849.35
2019-03-26T14:30:58.352Z,101849.00
2019-03-26T14:33:26.878Z,101856.41
2019-03-26T14:35:55.307Z,101851.17
2019-03-26T14:38:23.740Z,101855.88
2019-03-26T14:40:55.217Z,101857.45
2019-03-26T14:43:22.340Z,101859.55
2019-03-26T14:45:50.931Z,101859.91
2019-03-26T14:48:19.349Z,101858.88
2019-03-26T14:50:47.763Z,101862.98
2019-03-26T14:53:16.193Z,101861.63
2019-03-26T14:55:44.614Z,101862.29
2019-03-26T14:58:13.126Z,101859.31
2019-03-26T15:00:41.637Z,101858.22
2019-03-26T15:03:10.060Z,101856.65
2019-03-26T15:05:38.492Z,101853.17
2019-03-26T15:08:06.918Z,101851.21
2019-03-26T15:10:35.382Z,101846.16
2019-03-26T15:13:03.787Z,101847.11
2019-03-26T15:15:32.223Z,101845.28
2019-03-26T15:18:00.643Z,101849.80
2019-03-26T15:20:29.144Z,101851.20
2019-03-26T15:22:58.167Z,101848.05
2019-03-26T15:25:26.715Z,101840.23
2019-03-26T15:27:55.238Z,101843.77
2019-03-26T15:30:23.752Z,101845.38
2019-03-26T15:32:52.190Z,101848.00
2019-03-26T15:35:20.658Z,101840.45
2019-03-26T15:37:49.070Z,101838.35
2019-03-26T15:40:17.560Z,101838.62
2019-03-26T15:42:45.994Z,101834.53
2019-03-26T15:45:14.992Z,101831.41
2019-03-26T15:47:43.505Z,101832.06
2019-03-26T15:50:12.486Z,101830.45
2019-03-26T15:52:42.385Z,101831.95
2019-03-26T15:55:11.194Z,101837.20
2019-03-26T15:57:39.676Z,101836.47
2019-03-26T16:00:08.663Z,101828.41
2019-03-26T16:02:37.090Z,101826.33
2019-03-26T16:05:07.370Z,101833.30
2019-03-26T16:07:35.791Z,101830.31
2019-03-26T16:10:06.082Z,101813.16
2019-03-26T16:12:41.121Z,101830.56
2019-03-26T16:15:06.598Z,101832.97
2019-03-26T16:17:35.045Z,101831.66
2019-03-26T16:20:04.614Z,101830.96
2019-03-26T16:22:33.136Z,101830.09
2019-03-26T16:25:01.561Z,101835.00
2019-03-26T16:27:30.006Z,101833.14
2019-03-26T16:29:58.462Z,101830.27
2019-03-26T16:32:26.882Z,101839.18
2019-03-26T16:34:55.299Z,101833.36
2019-03-26T16:37:23.740Z,101830.13
2019-03-26T16:39:52.172Z,101827.96
2019-03-26T16:42:20.624Z,101824.88
2019-03-26T16:44:49.064Z,101829.47
2019-03-26T16:47:17.520Z,101829.99
2019-03-26T16:49:45.968Z,101828.23
2019-03-26T16:52:14.458Z,101823.78
2019-03-26T16:54:42.921Z,101820.70
2019-03-26T16:57:11.342Z,101819.96
2019-03-26T16:59:39.836Z,101816.34
2019-03-26T17:02:08.328Z,101823.57
2019-03-26T17:04:36.751Z,101819.82
2019-03-26T17:07:05.749Z,101817.22
2019-03-26T17:09:34.257Z,101817.22
2019-03-26T17:12:03.786Z,101820.09
2019-03-26T17:14:32.408Z,101822.97
2019-03-26T17:17:00.843Z,101818.30
2019-03-26T17:19:32.465Z,101815.39
2019-03-26T17:21:59.576Z,101818.95
2019-03-26T17:24:28.061Z,101819.52
2019-03-26T17:26:56.503Z,101826.02
2019-03-26T17:29:24.935Z,101824.94
2019-03-26T17:31:53.389Z,101824.23
2019-03-26T17:34:21.895Z,101821.23
2019-03-26T17:36:50.351Z,101826.00
2019-03-26T17:39:18.763Z,101817.41
2019-03-26T17:41:47.267Z,101827.37
2019-03-26T17:44:15.717Z,101827.72
2019-03-26T17:46:44.235Z,101825.61
2019-03-26T17:49:12.661Z,101830.86
2019-03-26T17:51:41.310Z,101826.16
2019-03-26T17:54:09.706Z,101819.59
2019-03-26T17:56:38.156Z,101828.94
2019-03-26T17:59:06.680Z,101820.27
2019-03-26T18:01:35.138Z,101824.11
2019-03-26T18:04:03.571Z,101826.00
2019-03-26T18:06:32.062Z,101820.81
2019-03-26T18:09:00.497Z,101826.41
2019-03-26T18:11:28.960Z,101840.20
2019-03-26T18:13:57.405Z,101837.97
2019-03-26T18:16:25.853Z,101836.39
2019-03-26T18:18:55.104Z,101839.78
2019-03-26T18:21:23.511Z,101844.14
2019-03-26T18:23:51.961Z,101845.67
2019-03-26T18:26:20.383Z,101851.14
2019-03-26T18:28:48.835Z,101846.69
2019-03-26T18:31:17.253Z,101855.14
2019-03-26T18:33:45.721Z,101852.44
2019-03-26T18:36:14.144Z,101861.02
2019-03-26T18:38:42.586Z,101859.42
2019-03-26T18:41:11.032Z,101857.92
2019-03-26T18:43:39.557Z,101856.08
2019-03-26T18:46:08.108Z,101860.89
2019-03-26T18:48:36.541Z,101861.86
2019-03-26T18:51:05.037Z,101861.86
2019-03-26T18:53:33.557Z,101870.41
2019-03-26T18:56:02.005Z,101871.91
2019-03-26T18:58:30.493Z,101870.93
2019-03-26T19:00:58.931Z,101870.67
2019-03-26T19:03:27.350Z,101872.55
2019-03-26T19:05:55.763Z,101875.41
2019-03-26T19:08:24.205Z,101877.75
2019-03-26T19:10:52.640Z,101869.69
2019-03-26T19:13:21.083Z,101876.03
2019-03-26T19:15:49.534Z,101877.39
2019-03-26T19:18:17.987Z,101879.01
2019-03-26T19:20:46.402Z,101884.59
2019-03-26T19:23:14.888Z,101888.06
2019-03-26T19:25:43.341Z,101882.13
2019-03-26T19:28:11.790Z,101886.70
2019-03-26T19:30:40.252Z,101887.30
2019-03-26T19:33:08.679Z,101884.05
2019-03-26T19:35:37.101Z,101889.16
2019-03-26T19:38:05.539Z,101890.87
2019-03-26T19:40:33.951Z,101882.33
2019-03-26T19:43:10.597Z,101887.43
2019-03-26T19:45:32.615Z,101891.78
2019-03-26T19:48:01.051Z,101888.66
2019-03-26T19:50:29.470Z,101887.55
2019-03-26T19:52:57.915Z,101887.81
2019-03-26T19:55:26.332Z,101896.61
2019-03-26T19:57:54.850Z,101891.41
2019-03-26T20:00:23.376Z,101885.95
2019-03-26T20:02:51.832Z,101891.41
2019-03-26T20:05:20.267Z,101887.57
2019-03-26T20:07:48.707Z,101892.44
2019-03-26T20:10:18.038Z,101894.87
2019-03-26T20:12:46.495Z,101896.00
2019-03-26T20:15:15.700Z,101894.89
2019-03-26T20:17:44.098Z,101898.72
2019-03-26T20:20:13.221Z,101904.17
2019-03-26T20:22:41.634Z,101901.56
2019-03-26T20:25:10.513Z,101900.33
2019-03-26T20:27:38.977Z,101899.48
2019-03-26T20:30:09.357Z,101899.61
2019-03-26T20:32:37.799Z,101906.92
2019-03-26T20:35:07.760Z,101900.71
2019-03-26T20:37:36.209Z,101909.41
2019-03-26T20:40:09.288Z,101909.53
2019-03-26T20:42:38.448Z,101908.78
2019-03-26T20:45:09.600Z,101922.91
2019-03-26T20:47:38.202Z,101911.76
2019-03-26T20:50:07.668Z,101923.91
2019-03-26T20:52:36.367Z,101921.05
2019-03-26T20:55:07.023Z,101923.05
2019-03-26T20:57:37.265Z,101928.37
2019-03-26T21:00:08.170Z,101930.22
2019-03-26T21:02:36.597Z,101932.08
2019-03-26T21:05:07.877Z,101938.77
2019-03-26T21:07:37.622Z,101940.52
2019-03-26T21:10:07.412Z,101937.16
2019-03-26T21:12:35.847Z,101943.97
2019-03-26T21:15:09.102Z,101933.06
2019-03-26T21:17:38.076Z,101944.24
2019-03-26T21:20:09.040Z,101938.66
2019-03-26T21:22:37.624Z,101942.36
2019-03-26T21:25:07.804Z,101943.23
2019-03-26T21:27:36.245Z,101947.69
2019-03-26T21:30:12.523Z,101950.18
2019-03-26T21:32:39.977Z,101949.17
2019-03-26T21:35:09.044Z,101956.88
2019-03-26T21:37:38.819Z,101951.42
2019-03-26T21:40:09.092Z,101952.30
2019-03-26T21:42:37.509Z,101953.14
2019-03-26T21:45:08.288Z,101953.14
2019-03-26T21:47:36.969Z,101959.96
2019-03-26T21:50:06.160Z,101956.75
2019-03-26T21:52:34.566Z,101956.75
2019-03-26T21:55:03.156Z,101954.90
2019-03-26T21:57:31.594Z,101953.02
2019-03-26T22:00:00.013Z,101949.45
2019-03-26T22:02:28.446Z,101961.72
2019-03-26T22:04:56.924Z,101960.36
2019-03-26T22:07:25.336Z,101955.75
2019-03-26T22:09:53.782Z,101952.66
2019-03-26T22:12:22.212Z,101952.66
2019-03-26T22:14:50.651Z,101954.90
2019-03-26T22:17:19.346Z,101963.80
2019-03-26T22:19:47.789Z,101960.23
2019-03-26T22:22:16.212Z,101955.26
2019-03-26T22:24:44.644Z,101958.87
2019-03-26T22:27:13.066Z,101960.98
2019-03-26T22:29:41.478Z,101955.13
2019-03-26T22:32:09.924Z,101955.53
2019-03-26T22:34:38.340Z,101952.80
2019-03-26T22:37:06.774Z,101954.65
2019-03-26T22:39:35.199Z,101957.86
2019-03-26T22:42:03.702Z,101959.63
2019-03-26T22:44:32.115Z,101954.65
2019-03-26T22:47:00.556Z,101957.38
2019-03-26T22:49:28.968Z,101958.25
2019-03-26T22:51:57.461Z,101964.20
2019-03-26T22:54:25.920Z,101963.71
2019-03-26T22:56:54.338Z,101967.28
2019-03-26T22:59:22.804Z,101972.25
2019-03-26T23:01:51.290Z,101973.98
2019-03-26T23:04:20.266Z,101977.71
2019-03-26T23:06:48.719Z,101973.98
2019-03-26T23:09:17.168Z,101973.13
2019-03-26T23:11:45.693Z,101978.20
2019-03-26T23:14:14.255Z,101975.47
2019-03-26T23:16:42.873Z,101975.86
2019-03-26T23:19:11.289Z,101981.80
2019-03-26T23:21:39.744Z,101969.52
2019-03-26T23:24:08.185Z,101966.05
2019-03-26T23:26:36.629Z,101968.29
2019-03-26T23:29:07.879Z,101973.74
2019-03-26T23:31:35.227Z,101977.35
2019-03-26T23:34:03.642Z,101971.38
2019-03-26T23:36:32.081Z,101964.68
2019-03-26T23:39:00.564Z,101968.77
2019-03-26T23:41:28.967Z,101967.41
2019-03-26T23:43:57.387Z,101963.08
2019-03-26T23:46:25.820Z,101963.31
2019-03-26T23:48:54.252Z,101963.56
2019-03-26T23:51:22.683Z,101963.56
2019-03-26T23:53:51.117Z,101960.97
2019-03-26T23:56:19.534Z,101965.55
2019-03-26T23:58:47.993Z,101970.64
